sensor_id;sensor_type;location;lat;lon;timestamp;temperature;humidity
37972;DHT22;23794;48.234;8.344;2022-09-24T00:01:23;11.10;99.90
37972;DHT22;23794;48.234;8.344;2022-09-24T00:03:53;11.20;99.90
37972;DHT22;23794;48.234;8.344;2022-09-24T00:06:21;11.20;99.90
37972;DHT22;23794;48.234;8.344;2022-09-24T00:08:51;11.30;99.90
37972;DHT22;23794;48.234;8.344;2022-09-24T00:11:25;11.40;99.90
37972;DHT22;23794;48.234;8.344;2022-09-24T00:13:53;11.40;99.90
37972;DHT22;23794;48.234;8.344;2022-09-24T00:16:22;11.40;99.90
37972;DHT22;23794;48.234;8.344;2022-09-24T00:18:52;11.40;99.90
37972;DHT22;23794;48.234;8.344;2022-09-24T00:21:24;11.50;99.90
37972;DHT22;23794;48.234;8.344;2022-09-24T00:23:55;11.50;99.90
37972;DHT22;23794;48.234;8.344;2022-09-24T00:26:22;11.50;99.90
37972;DHT22;23794;48.234;8.344;2022-09-24T00:29:09;11.40;99.90
37972;DHT22;23794;48.234;8.344;2022-09-24T00:31:36;11.40;99.90
37972;DHT22;23794;48.234;8.344;2022-09-24T00:34:04;11.40;99.90
37972;DHT22;23794;48.234;8.344;2022-09-24T00:36:31;11.50;99.90
37972;DHT22;23794;48.234;8.344;2022-09-24T00:38:59;11.50;99.90
37972;DHT22;23794;48.234;8.344;2022-09-24T00:41:28;11.40;99.90
37972;DHT22;23794;48.234;8.344;2022-09-24T00:43:56;11.30;99.90
37972;DHT22;23794;48.234;8.344;2022-09-24T00:46:39;11.30;99.90
37972;DHT22;23794;48.234;8.344;2022-09-24T00:49:13;11.30;99.90
37972;DHT22;23794;48.234;8.344;2022-09-24T00:51:46;11.30;99.90
37972;DHT22;23794;48.234;8.344;2022-09-24T00:54:21;11.20;99.90
37972;DHT22;23794;48.234;8.344;2022-09-24T00:56:50;11.20;99.90
37972;DHT22;23794;48.234;8.344;2022-09-24T00:59:20;11.20;99.90
37972;DHT22;23794;48.234;8.344;2022-09-24T01:01:49;11.20;99.90
37972;DHT22;23794;48.234;8.344;2022-09-24T01:04:18;11.20;99.90
37972;DHT22;23794;48.234;8.344;2022-09-24T01:06:49;11.10;99.90
37972;DHT22;23794;48.234;8.344;2022-09-24T01:09:17;11.00;99.90
37972;DHT22;23794;48.234;8.344;2022-09-24T01:12:13;11.00;99.90
37972;DHT22;23794;48.234;8.344;2022-09-24T01:15:16;11.10;99.90
37972;DHT22;23794;48.234;8.344;2022-09-24T01:17:54;11.00;99.90
37972;DHT22;23794;48.234;8.344;2022-09-24T01:20:45;11.00;99.90
37972;DHT22;23794;48.234;8.344;2022-09-24T01:31:29;11.00;99.90
37972;DHT22;23794;48.234;8.344;2022-09-24T01:33:59;11.00;99.90
37972;DHT22;23794;48.234;8.344;2022-09-24T01:36:28;11.10;99.90
37972;DHT22;23794;48.234;8.344;2022-09-24T01:38:57;11.10;99.90
37972;DHT22;23794;48.234;8.344;2022-09-24T01:41:25;11.20;99.90
37972;DHT22;23794;48.234;8.344;2022-09-24T01:43:52;11.20;99.90
37972;DHT22;23794;48.234;8.344;2022-09-24T01:46:20;11.20;99.90
37972;DHT22;23794;48.234;8.344;2022-09-24T01:48:48;11.20;99.90
37972;DHT22;23794;48.234;8.344;2022-09-24T01:51:39;11.10;99.90
37972;DHT22;23794;48.234;8.344;2022-09-24T01:54:25;11.10;99.90
37972;DHT22;23794;48.234;8.344;2022-09-24T01:57:40;11.10;99.90
37972;DHT22;23794;48.234;8.344;2022-09-24T02:02:43;11.10;99.90
37972;DHT22;23794;48.234;8.344;2022-09-24T02:08:13;11.20;99.90
37972;DHT22;23794;48.234;8.344;2022-09-24T02:11:15;11.20;99.90
37972;DHT22;23794;48.234;8.344;2022-09-24T02:14:07;11.20;99.90
37972;DHT22;23794;48.234;8.344;2022-09-24T02:16:45;11.20;99.90
37972;DHT22;23794;48.234;8.344;2022-09-24T02:19:17;11.20;99.90
37972;DHT22;23794;48.234;8.344;2022-09-24T02:21:44;11.20;99.90
37972;DHT22;23794;48.234;8.344;2022-09-24T02:27:04;11.20;99.90
37972;DHT22;23794;48.234;8.344;2022-09-24T02:29:31;11.10;99.90
37972;DHT22;23794;48.234;8.344;2022-09-24T02:31:58;11.10;99.90
37972;DHT22;23794;48.234;8.344;2022-09-24T02:34:34;11.10;99.90
37972;DHT22;23794;48.234;8.344;2022-09-24T02:37:08;11.10;99.90
37972;DHT22;23794;48.234;8.344;2022-09-24T02:39:35;11.10;99.90
37972;DHT22;23794;48.234;8.344;2022-09-24T02:42:03;11.20;99.90
37972;DHT22;23794;48.234;8.344;2022-09-24T02:44:32;11.30;99.90
37972;DHT22;23794;48.234;8.344;2022-09-24T02:46:59;11.30;99.90
37972;DHT22;23794;48.234;8.344;2022-09-24T02:49:26;11.40;99.90
37972;DHT22;23794;48.234;8.344;2022-09-24T02:51:53;11.40;99.90
37972;DHT22;23794;48.234;8.344;2022-09-24T02:54:21;11.40;99.90
37972;DHT22;23794;48.234;8.344;2022-09-24T02:56:48;11.30;99.90
37972;DHT22;23794;48.234;8.344;2022-09-24T02:59:15;11.30;99.90
37972;DHT22;23794;48.234;8.344;2022-09-24T03:01:42;11.20;99.90
37972;DHT22;23794;48.234;8.344;2022-09-24T03:04:09;10.90;99.90
37972;DHT22;23794;48.234;8.344;2022-09-24T03:06:36;10.90;99.90
37972;DHT22;23794;48.234;8.344;2022-09-24T03:09:03;11.00;99.90
37972;DHT22;23794;48.234;8.344;2022-09-24T03:11:30;11.10;99.90
37972;DHT22;23794;48.234;8.344;2022-09-24T03:13:58;11.20;99.90
37972;DHT22;23794;48.234;8.344;2022-09-24T03:16:25;11.30;99.90
37972;DHT22;23794;48.234;8.344;2022-09-24T03:18:52;11.20;99.90
37972;DHT22;23794;48.234;8.344;2022-09-24T03:21:20;11.30;99.90
37972;DHT22;23794;48.234;8.344;2022-09-24T03:23:47;11.20;99.90
37972;DHT22;23794;48.234;8.344;2022-09-24T03:26:15;11.10;99.90
37972;DHT22;23794;48.234;8.344;2022-09-24T03:28:43;11.10;99.90
37972;DHT22;23794;48.234;8.344;2022-09-24T03:31:10;11.10;99.90
37972;DHT22;23794;48.234;8.344;2022-09-24T03:36:08;11.20;99.90
37972;DHT22;23794;48.234;8.344;2022-09-24T03:38:37;11.20;99.90
37972;DHT22;23794;48.234;8.344;2022-09-24T03:41:05;11.30;99.90
37972;DHT22;23794;48.234;8.344;2022-09-24T03:43:32;11.30;99.90
37972;DHT22;23794;48.234;8.344;2022-09-24T03:45:59;11.20;99.90
37972;DHT22;23794;48.234;8.344;2022-09-24T03:48:27;11.30;99.90
37972;DHT22;23794;48.234;8.344;2022-09-24T03:50:55;11.30;99.90
37972;DHT22;23794;48.234;8.344;2022-09-24T03:53:22;11.30;99.90
37972;DHT22;23794;48.234;8.344;2022-09-24T03:55:54;11.30;99.90
37972;DHT22;23794;48.234;8.344;2022-09-24T03:58:22;11.30;99.90
37972;DHT22;23794;48.234;8.344;2022-09-24T04:00:53;11.30;99.90
37972;DHT22;23794;48.234;8.344;2022-09-24T04:03:21;11.40;99.90
37972;DHT22;23794;48.234;8.344;2022-09-24T04:05:48;11.40;99.90
37972;DHT22;23794;48.234;8.344;2022-09-24T04:08:20;11.20;99.90
37972;DHT22;23794;48.234;8.344;2022-09-24T04:10:48;11.20;99.90
37972;DHT22;23794;48.234;8.344;2022-09-24T04:13:17;11.30;99.90
37972;DHT22;23794;48.234;8.344;2022-09-24T04:15:44;11.40;99.90
37972;DHT22;23794;48.234;8.344;2022-09-24T04:18:11;11.50;99.90
37972;DHT22;23794;48.234;8.344;2022-09-24T04:20:38;11.50;99.90
37972;DHT22;23794;48.234;8.344;2022-09-24T04:23:05;11.50;99.90
37972;DHT22;23794;48.234;8.344;2022-09-24T04:25:32;11.40;99.90
37972;DHT22;23794;48.234;8.344;2022-09-24T04:28:02;11.30;99.90
37972;DHT22;23794;48.234;8.344;2022-09-24T04:30:30;11.30;99.90
37972;DHT22;23794;48.234;8.344;2022-09-24T04:32:57;11.30;99.90
37972;DHT22;23794;48.234;8.344;2022-09-24T04:35:28;11.40;99.90
37972;DHT22;23794;48.234;8.344;2022-09-24T04:37:56;11.40;99.90
37972;DHT22;23794;48.234;8.344;2022-09-24T04:40:25;11.50;99.90
37972;DHT22;23794;48.234;8.344;2022-09-24T04:42:52;11.60;99.90
37972;DHT22;23794;48.234;8.344;2022-09-24T04:45:19;11.60;99.90
37972;DHT22;23794;48.234;8.344;2022-09-24T04:47:48;11.60;99.90
37972;DHT22;23794;48.234;8.344;2022-09-24T04:50:23;11.60;99.90
37972;DHT22;23794;48.234;8.344;2022-09-24T04:52:52;11.70;99.90
37972;DHT22;23794;48.234;8.344;2022-09-24T04:55:19;11.70;99.90
37972;DHT22;23794;48.234;8.344;2022-09-24T04:57:49;11.80;99.90
37972;DHT22;23794;48.234;8.344;2022-09-24T05:00:19;11.80;99.90
37972;DHT22;23794;48.234;8.344;2022-09-24T05:02:46;11.80;99.90
37972;DHT22;23794;48.234;8.344;2022-09-24T05:05:16;11.80;99.90
37972;DHT22;23794;48.234;8.344;2022-09-24T05:07:43;11.90;99.90
37972;DHT22;23794;48.234;8.344;2022-09-24T05:10:10;11.90;99.90
37972;DHT22;23794;48.234;8.344;2022-09-24T05:12:39;11.90;99.90
37972;DHT22;23794;48.234;8.344;2022-09-24T05:15:06;11.80;99.90
37972;DHT22;23794;48.234;8.344;2022-09-24T05:17:39;11.60;99.90
37972;DHT22;23794;48.234;8.344;2022-09-24T05:20:07;11.50;99.90
37972;DHT22;23794;48.234;8.344;2022-09-24T05:22:40;11.50;99.90
37972;DHT22;23794;48.234;8.344;2022-09-24T05:25:07;11.50;99.90
37972;DHT22;23794;48.234;8.344;2022-09-24T05:27:34;11.50;99.90
37972;DHT22;23794;48.234;8.344;2022-09-24T05:30:02;11.40;99.90
37972;DHT22;23794;48.234;8.344;2022-09-24T05:32:29;11.30;99.90
37972;DHT22;23794;48.234;8.344;2022-09-24T05:34:57;11.30;99.90
37972;DHT22;23794;48.234;8.344;2022-09-24T05:37:24;11.30;99.90
37972;DHT22;23794;48.234;8.344;2022-09-24T05:39:51;11.40;99.90
37972;DHT22;23794;48.234;8.344;2022-09-24T05:42:19;11.50;99.90
37972;DHT22;23794;48.234;8.344;2022-09-24T05:44:46;11.50;99.90
37972;DHT22;23794;48.234;8.344;2022-09-24T05:47:17;11.40;99.90
37972;DHT22;23794;48.234;8.344;2022-09-24T05:49:44;11.10;99.90
37972;DHT22;23794;48.234;8.344;2022-09-24T05:52:11;11.10;99.90
37972;DHT22;23794;48.234;8.344;2022-09-24T05:54:38;11.20;99.90
37972;DHT22;23794;48.234;8.344;2022-09-24T05:57:05;11.40;99.90
37972;DHT22;23794;48.234;8.344;2022-09-24T05:59:32;11.40;99.90
37972;DHT22;23794;48.234;8.344;2022-09-24T06:02:01;11.50;99.90
37972;DHT22;23794;48.234;8.344;2022-09-24T06:04:28;11.50;99.90
37972;DHT22;23794;48.234;8.344;2022-09-24T06:06:54;11.60;99.90
37972;DHT22;23794;48.234;8.344;2022-09-24T06:09:21;11.60;99.90
37972;DHT22;23794;48.234;8.344;2022-09-24T06:11:48;11.50;99.90
37972;DHT22;23794;48.234;8.344;2022-09-24T06:14:16;11.60;99.90
37972;DHT22;23794;48.234;8.344;2022-09-24T06:16:43;11.70;99.90
37972;DHT22;23794;48.234;8.344;2022-09-24T06:19:10;11.50;99.90
37972;DHT22;23794;48.234;8.344;2022-09-24T06:21:37;11.50;99.90
37972;DHT22;23794;48.234;8.344;2022-09-24T06:24:03;11.60;99.90
37972;DHT22;23794;48.234;8.344;2022-09-24T06:26:30;11.60;99.90
37972;DHT22;23794;48.234;8.344;2022-09-24T06:28:58;11.70;99.90
37972;DHT22;23794;48.234;8.344;2022-09-24T06:31:35;11.60;99.90
37972;DHT22;23794;48.234;8.344;2022-09-24T06:34:02;11.60;99.90
37972;DHT22;23794;48.234;8.344;2022-09-24T06:36:29;11.50;99.90
37972;DHT22;23794;48.234;8.344;2022-09-24T06:38:55;11.50;99.90
37972;DHT22;23794;48.234;8.344;2022-09-24T06:41:24;11.50;99.90
37972;DHT22;23794;48.234;8.344;2022-09-24T06:43:53;11.50;99.90
37972;DHT22;23794;48.234;8.344;2022-09-24T06:46:45;11.70;99.90
37972;DHT22;23794;48.234;8.344;2022-09-24T06:49:12;11.80;99.90
37972;DHT22;23794;48.234;8.344;2022-09-24T06:51:38;11.90;99.90
37972;DHT22;23794;48.234;8.344;2022-09-24T06:54:05;12.00;99.90
37972;DHT22;23794;48.234;8.344;2022-09-24T06:56:32;12.00;99.90
37972;DHT22;23794;48.234;8.344;2022-09-24T06:58:59;12.00;99.90
37972;DHT22;23794;48.234;8.344;2022-09-24T07:01:26;12.00;99.90
37972;DHT22;23794;48.234;8.344;2022-09-24T07:03:52;12.20;99.90
37972;DHT22;23794;48.234;8.344;2022-09-24T07:06:19;12.20;99.90
37972;DHT22;23794;48.234;8.344;2022-09-24T07:08:50;12.30;99.90
37972;DHT22;23794;48.234;8.344;2022-09-24T07:11:17;12.40;99.90
37972;DHT22;23794;48.234;8.344;2022-09-24T07:13:44;12.40;99.90
37972;DHT22;23794;48.234;8.344;2022-09-24T07:16:10;12.40;99.90
37972;DHT22;23794;48.234;8.344;2022-09-24T07:18:37;12.40;99.90
37972;DHT22;23794;48.234;8.344;2022-09-24T07:21:04;12.50;99.90
37972;DHT22;23794;48.234;8.344;2022-09-24T07:23:31;12.60;99.90
37972;DHT22;23794;48.234;8.344;2022-09-24T07:25:58;12.60;99.90
37972;DHT22;23794;48.234;8.344;2022-09-24T07:28:25;12.50;99.90
37972;DHT22;23794;48.234;8.344;2022-09-24T07:30:58;12.60;99.90
37972;DHT22;23794;48.234;8.344;2022-09-24T07:33:26;12.60;99.90
37972;DHT22;23794;48.234;8.344;2022-09-24T07:35:52;12.70;99.90
37972;DHT22;23794;48.234;8.344;2022-09-24T07:38:19;12.70;99.90
37972;DHT22;23794;48.234;8.344;2022-09-24T07:40:48;12.90;99.90
37972;DHT22;23794;48.234;8.344;2022-09-24T07:43:15;13.10;99.90
37972;DHT22;23794;48.234;8.344;2022-09-24T07:45:42;13.20;99.90
37972;DHT22;23794;48.234;8.344;2022-09-24T07:48:09;13.30;99.90
37972;DHT22;23794;48.234;8.344;2022-09-24T07:50:40;13.40;99.90
37972;DHT22;23794;48.234;8.344;2022-09-24T07:53:10;13.50;99.90
37972;DHT22;23794;48.234;8.344;2022-09-24T07:55:38;13.50;99.90
37972;DHT22;23794;48.234;8.344;2022-09-24T07:58:11;13.40;99.90
37972;DHT22;23794;48.234;8.344;2022-09-24T08:00:39;13.30;99.90
37972;DHT22;23794;48.234;8.344;2022-09-24T08:03:06;13.10;99.90
37972;DHT22;23794;48.234;8.344;2022-09-24T08:05:33;13.10;99.90
37972;DHT22;23794;48.234;8.344;2022-09-24T08:08:00;13.30;99.90
37972;DHT22;23794;48.234;8.344;2022-09-24T08:10:27;13.40;99.90
37972;DHT22;23794;48.234;8.344;2022-09-24T08:12:54;13.50;99.90
37972;DHT22;23794;48.234;8.344;2022-09-24T08:15:24;13.70;99.90
37972;DHT22;23794;48.234;8.344;2022-09-24T08:17:51;13.80;99.90
37972;DHT22;23794;48.234;8.344;2022-09-24T08:20:19;13.90;99.90
37972;DHT22;23794;48.234;8.344;2022-09-24T08:22:47;14.00;99.90
37972;DHT22;23794;48.234;8.344;2022-09-24T08:25:13;14.10;99.90
37972;DHT22;23794;48.234;8.344;2022-09-24T08:27:40;14.10;99.90
37972;DHT22;23794;48.234;8.344;2022-09-24T08:30:07;14.00;99.90
37972;DHT22;23794;48.234;8.344;2022-09-24T08:32:34;14.00;99.90
37972;DHT22;23794;48.234;8.344;2022-09-24T08:35:01;14.00;99.90
37972;DHT22;23794;48.234;8.344;2022-09-24T08:37:29;14.00;99.90
37972;DHT22;23794;48.234;8.344;2022-09-24T08:39:55;14.00;99.90
37972;DHT22;23794;48.234;8.344;2022-09-24T08:45:41;14.10;99.90
37972;DHT22;23794;48.234;8.344;2022-09-24T08:48:33;14.10;99.90
37972;DHT22;23794;48.234;8.344;2022-09-24T08:51:06;14.10;99.90
37972;DHT22;23794;48.234;8.344;2022-09-24T08:56:10;13.90;99.90
37972;DHT22;23794;48.234;8.344;2022-09-24T09:03:48;14.00;99.90
37972;DHT22;23794;48.234;8.344;2022-09-24T09:06:51;14.10;99.90
37972;DHT22;23794;48.234;8.344;2022-09-24T09:09:27;14.10;99.90
37972;DHT22;23794;48.234;8.344;2022-09-24T09:12:01;14.10;99.90
37972;DHT22;23794;48.234;8.344;2022-09-24T09:15:14;14.20;99.90
37972;DHT22;23794;48.234;8.344;2022-09-24T09:17:53;14.20;99.90
37972;DHT22;23794;48.234;8.344;2022-09-24T09:20:33;14.30;99.90
37972;DHT22;23794;48.234;8.344;2022-09-24T09:23:21;14.40;99.90
37972;DHT22;23794;48.234;8.344;2022-09-24T09:25:53;14.20;99.90
37972;DHT22;23794;48.234;8.344;2022-09-24T09:28:21;14.20;99.90
37972;DHT22;23794;48.234;8.344;2022-09-24T09:31:29;14.30;99.90
37972;DHT22;23794;48.234;8.344;2022-09-24T09:34:36;14.50;99.90
37972;DHT22;23794;48.234;8.344;2022-09-24T09:38:02;14.60;99.90
37972;DHT22;23794;48.234;8.344;2022-09-24T09:40:40;14.80;99.90
37972;DHT22;23794;48.234;8.344;2022-09-24T09:43:10;14.90;99.90
37972;DHT22;23794;48.234;8.344;2022-09-24T09:46:12;15.00;99.90
37972;DHT22;23794;48.234;8.344;2022-09-24T09:49:01;15.00;99.90
37972;DHT22;23794;48.234;8.344;2022-09-24T09:51:39;14.90;99.90
37972;DHT22;23794;48.234;8.344;2022-09-24T09:54:06;14.90;99.90
37972;DHT22;23794;48.234;8.344;2022-09-24T09:56:37;15.00;99.90
37972;DHT22;23794;48.234;8.344;2022-09-24T09:59:17;15.20;99.90
37972;DHT22;23794;48.234;8.344;2022-09-24T10:01:51;15.20;99.90
37972;DHT22;23794;48.234;8.344;2022-09-24T10:04:36;15.30;99.90
37972;DHT22;23794;48.234;8.344;2022-09-24T10:07:10;15.30;99.90
37972;DHT22;23794;48.234;8.344;2022-09-24T10:09:38;15.50;99.90
37972;DHT22;23794;48.234;8.344;2022-09-24T10:12:21;15.50;99.90
37972;DHT22;23794;48.234;8.344;2022-09-24T10:15:22;15.50;99.90
37972;DHT22;23794;48.234;8.344;2022-09-24T10:17:52;15.50;99.90
37972;DHT22;23794;48.234;8.344;2022-09-24T10:20:25;15.40;99.90
37972;DHT22;23794;48.234;8.344;2022-09-24T10:23:01;15.40;99.90
37972;DHT22;23794;48.234;8.344;2022-09-24T10:25:30;15.50;99.90
37972;DHT22;23794;48.234;8.344;2022-09-24T10:28:02;15.40;99.90
37972;DHT22;23794;48.234;8.344;2022-09-24T10:31:00;15.60;99.90
37972;DHT22;23794;48.234;8.344;2022-09-24T10:33:43;15.80;99.90
37972;DHT22;23794;48.234;8.344;2022-09-24T10:36:19;16.00;99.90
37972;DHT22;23794;48.234;8.344;2022-09-24T10:38:46;16.00;99.90
37972;DHT22;23794;48.234;8.344;2022-09-24T10:41:24;16.10;99.90
37972;DHT22;23794;48.234;8.344;2022-09-24T10:43:54;16.30;99.90
37972;DHT22;23794;48.234;8.344;2022-09-24T10:46:25;16.30;99.90
37972;DHT22;23794;48.234;8.344;2022-09-24T10:49:00;16.30;99.90
37972;DHT22;23794;48.234;8.344;2022-09-24T10:56:42;16.60;99.90
37972;DHT22;23794;48.234;8.344;2022-09-24T11:04:55;16.80;99.90
37972;DHT22;23794;48.234;8.344;2022-09-24T11:16:14;16.80;99.90
37972;DHT22;23794;48.234;8.344;2022-09-24T11:18:59;16.70;99.90
37972;DHT22;23794;48.234;8.344;2022-09-24T11:32:43;16.70;99.90
37972;DHT22;23794;48.234;8.344;2022-09-24T11:35:46;16.70;99.90
37972;DHT22;23794;48.234;8.344;2022-09-24T11:46:57;16.10;99.90
37972;DHT22;23794;48.234;8.344;2022-09-24T11:52:30;16.00;99.90
37972;DHT22;23794;48.234;8.344;2022-09-24T11:55:18;16.10;99.90
37972;DHT22;23794;48.234;8.344;2022-09-24T12:00:33;15.90;99.90
37972;DHT22;23794;48.234;8.344;2022-09-24T12:03:08;16.00;99.90
37972;DHT22;23794;48.234;8.344;2022-09-24T12:05:50;16.00;99.90
37972;DHT22;23794;48.234;8.344;2022-09-24T12:08:31;16.10;99.90
37972;DHT22;23794;48.234;8.344;2022-09-24T12:11:32;16.60;99.90
37972;DHT22;23794;48.234;8.344;2022-09-24T12:14:16;17.10;99.90
37972;DHT22;23794;48.234;8.344;2022-09-24T12:16:48;17.40;99.90
37972;DHT22;23794;48.234;8.344;2022-09-24T12:21:56;17.50;99.90
37972;DHT22;23794;48.234;8.344;2022-09-24T12:24:36;18.00;99.90
37972;DHT22;23794;48.234;8.344;2022-09-24T12:27:16;18.50;99.90
37972;DHT22;23794;48.234;8.344;2022-09-24T12:29:56;18.70;99.90
37972;DHT22;23794;48.234;8.344;2022-09-24T12:33:01;18.90;99.90
37972;DHT22;23794;48.234;8.344;2022-09-24T12:41:28;17.20;99.90
37972;DHT22;23794;48.234;8.344;2022-09-24T12:46:41;16.90;99.90
37972;DHT22;23794;48.234;8.344;2022-09-24T12:51:45;17.00;99.90
37972;DHT22;23794;48.234;8.344;2022-09-24T13:00:32;17.20;99.90
37972;DHT22;23794;48.234;8.344;2022-09-24T13:02:46;17.20;99.90
37972;DHT22;23794;48.234;8.344;2022-09-24T13:05:24;17.20;99.90
37972;DHT22;23794;48.234;8.344;2022-09-24T13:10:30;17.10;99.90
37972;DHT22;23794;48.234;8.344;2022-09-24T13:12:59;17.10;99.90
37972;DHT22;23794;48.234;8.344;2022-09-24T13:15:34;17.40;99.90
37972;DHT22;23794;48.234;8.344;2022-09-24T13:20:37;17.70;99.90
37972;DHT22;23794;48.234;8.344;2022-09-24T13:23:13;17.80;99.90
37972;DHT22;23794;48.234;8.344;2022-09-24T13:28:25;18.10;99.90
37972;DHT22;23794;48.234;8.344;2022-09-24T13:31:18;18.00;99.90
37972;DHT22;23794;48.234;8.344;2022-09-24T13:33:52;18.20;99.90
37972;DHT22;23794;48.234;8.344;2022-09-24T13:36:27;18.40;99.90
37972;DHT22;23794;48.234;8.344;2022-09-24T13:39:04;18.50;99.90
37972;DHT22;23794;48.234;8.344;2022-09-24T13:44:26;18.90;99.90
37972;DHT22;23794;48.234;8.344;2022-09-24T13:47:45;18.60;99.90
37972;DHT22;23794;48.234;8.344;2022-09-24T13:49:48;18.20;99.90
37972;DHT22;23794;48.234;8.344;2022-09-24T13:52:29;17.80;99.90
37972;DHT22;23794;48.234;8.344;2022-09-24T13:55:01;17.80;99.90
37972;DHT22;23794;48.234;8.344;2022-09-24T13:57:42;18.10;99.90
37972;DHT22;23794;48.234;8.344;2022-09-24T14:03:23;18.10;99.90
37972;DHT22;23794;48.234;8.344;2022-09-24T14:05:52;18.60;99.90
37972;DHT22;23794;48.234;8.344;2022-09-24T14:08:21;18.70;99.90
37972;DHT22;23794;48.234;8.344;2022-09-24T14:10:49;18.60;99.90
37972;DHT22;23794;48.234;8.344;2022-09-24T14:13:23;18.60;99.90
37972;DHT22;23794;48.234;8.344;2022-09-24T14:16:06;18.30;99.90
37972;DHT22;23794;48.234;8.344;2022-09-24T14:18:33;17.90;99.90
37972;DHT22;23794;48.234;8.344;2022-09-24T14:21:26;17.80;99.90
37972;DHT22;23794;48.234;8.344;2022-09-24T14:23:59;17.50;99.90
37972;DHT22;23794;48.234;8.344;2022-09-24T14:26:46;17.10;99.90
37972;DHT22;23794;48.234;8.344;2022-09-24T14:29:17;17.20;99.90
37972;DHT22;23794;48.234;8.344;2022-09-24T14:31:52;17.30;99.90
37972;DHT22;23794;48.234;8.344;2022-09-24T14:34:24;17.30;99.90
37972;DHT22;23794;48.234;8.344;2022-09-24T14:36:54;17.10;99.90
37972;DHT22;23794;48.234;8.344;2022-09-24T14:39:24;17.00;99.90
37972;DHT22;23794;48.234;8.344;2022-09-24T14:41:53;16.90;99.90
37972;DHT22;23794;48.234;8.344;2022-09-24T14:44:23;16.70;99.90
37972;DHT22;23794;48.234;8.344;2022-09-24T14:46:54;16.80;99.90
37972;DHT22;23794;48.234;8.344;2022-09-24T14:49:30;16.70;99.90
37972;DHT22;23794;48.234;8.344;2022-09-24T14:52:00;16.60;99.90
37972;DHT22;23794;48.234;8.344;2022-09-24T14:54:36;16.50;99.90
37972;DHT22;23794;48.234;8.344;2022-09-24T14:57:56;16.30;99.90
37972;DHT22;23794;48.234;8.344;2022-09-24T14:59:58;16.20;99.90
37972;DHT22;23794;48.234;8.344;2022-09-24T15:02:29;16.10;99.90
37972;DHT22;23794;48.234;8.344;2022-09-24T15:05:02;15.90;99.90
37972;DHT22;23794;48.234;8.344;2022-09-24T15:07:33;15.60;99.90
37972;DHT22;23794;48.234;8.344;2022-09-24T15:10:03;15.70;99.90
37972;DHT22;23794;48.234;8.344;2022-09-24T15:12:38;15.80;99.90
37972;DHT22;23794;48.234;8.344;2022-09-24T15:17:45;15.60;99.90
37972;DHT22;23794;48.234;8.344;2022-09-24T15:20:13;15.60;99.90
37972;DHT22;23794;48.234;8.344;2022-09-24T15:22:40;15.60;99.90
37972;DHT22;23794;48.234;8.344;2022-09-24T15:25:07;15.70;99.90
37972;DHT22;23794;48.234;8.344;2022-09-24T15:27:38;15.70;99.90
37972;DHT22;23794;48.234;8.344;2022-09-24T15:30:08;15.60;99.90
37972;DHT22;23794;48.234;8.344;2022-09-24T15:32:36;15.60;99.90
37972;DHT22;23794;48.234;8.344;2022-09-24T15:35:05;15.60;99.90
37972;DHT22;23794;48.234;8.344;2022-09-24T15:37:38;15.60;99.90
37972;DHT22;23794;48.234;8.344;2022-09-24T15:40:18;15.60;99.90
37972;DHT22;23794;48.234;8.344;2022-09-24T15:42:48;15.50;99.90
37972;DHT22;23794;48.234;8.344;2022-09-24T15:45:21;15.60;99.90
37972;DHT22;23794;48.234;8.344;2022-09-24T15:47:49;15.70;99.90
37972;DHT22;23794;48.234;8.344;2022-09-24T15:50:19;15.70;99.90
37972;DHT22;23794;48.234;8.344;2022-09-24T15:52:52;15.80;99.90
37972;DHT22;23794;48.234;8.344;2022-09-24T15:55:21;15.90;99.90
37972;DHT22;23794;48.234;8.344;2022-09-24T15:57:47;15.70;99.90
37972;DHT22;23794;48.234;8.344;2022-09-24T16:00:20;15.60;99.90
37972;DHT22;23794;48.234;8.344;2022-09-24T16:02:50;15.60;99.90
37972;DHT22;23794;48.234;8.344;2022-09-24T16:05:19;15.60;99.90
37972;DHT22;23794;48.234;8.344;2022-09-24T16:07:46;15.60;99.90
37972;DHT22;23794;48.234;8.344;2022-09-24T16:10:13;15.60;99.90
37972;DHT22;23794;48.234;8.344;2022-09-24T16:12:41;15.60;99.90
37972;DHT22;23794;48.234;8.344;2022-09-24T16:15:11;15.30;99.90
37972;DHT22;23794;48.234;8.344;2022-09-24T16:17:39;15.10;99.90
37972;DHT22;23794;48.234;8.344;2022-09-24T16:20:06;15.00;99.90
37972;DHT22;23794;48.234;8.344;2022-09-24T16:22:33;15.00;99.90
37972;DHT22;23794;48.234;8.344;2022-09-24T16:25:00;14.90;99.90
37972;DHT22;23794;48.234;8.344;2022-09-24T16:27:27;14.80;99.90
37972;DHT22;23794;48.234;8.344;2022-09-24T16:29:54;14.80;99.90
37972;DHT22;23794;48.234;8.344;2022-09-24T16:32:20;14.80;99.90
37972;DHT22;23794;48.234;8.344;2022-09-24T16:34:47;14.80;99.90
37972;DHT22;23794;48.234;8.344;2022-09-24T16:37:14;14.80;99.90
37972;DHT22;23794;48.234;8.344;2022-09-24T16:39:42;14.70;99.90
37972;DHT22;23794;48.234;8.344;2022-09-24T16:42:09;14.60;99.90
37972;DHT22;23794;48.234;8.344;2022-09-24T16:44:36;14.40;99.90
37972;DHT22;23794;48.234;8.344;2022-09-24T16:47:03;14.30;99.90
37972;DHT22;23794;48.234;8.344;2022-09-24T16:49:29;13.70;99.90
37972;DHT22;23794;48.234;8.344;2022-09-24T16:51:56;13.50;99.90
37972;DHT22;23794;48.234;8.344;2022-09-24T16:54:23;13.60;99.90
37972;DHT22;23794;48.234;8.344;2022-09-24T16:56:51;13.50;99.90
37972;DHT22;23794;48.234;8.344;2022-09-24T16:59:18;13.20;99.90
37972;DHT22;23794;48.234;8.344;2022-09-24T17:01:45;13.00;99.90
37972;DHT22;23794;48.234;8.344;2022-09-24T17:04:12;13.00;99.90
37972;DHT22;23794;48.234;8.344;2022-09-24T17:06:39;13.00;99.90
37972;DHT22;23794;48.234;8.344;2022-09-24T17:09:06;13.00;99.90
37972;DHT22;23794;48.234;8.344;2022-09-24T17:11:52;13.10;99.90
37972;DHT22;23794;48.234;8.344;2022-09-24T17:14:19;13.20;99.90
37972;DHT22;23794;48.234;8.344;2022-09-24T17:16:46;13.40;99.90
37972;DHT22;23794;48.234;8.344;2022-09-24T17:19:12;13.40;99.90
37972;DHT22;23794;48.234;8.344;2022-09-24T17:21:42;13.30;99.90
37972;DHT22;23794;48.234;8.344;2022-09-24T17:24:11;13.10;99.90
37972;DHT22;23794;48.234;8.344;2022-09-24T17:26:44;13.00;99.90
37972;DHT22;23794;48.234;8.344;2022-09-24T17:29:11;13.00;99.90
37972;DHT22;23794;48.234;8.344;2022-09-24T17:31:38;13.00;99.90
37972;DHT22;23794;48.234;8.344;2022-09-24T17:34:07;12.90;99.90
37972;DHT22;23794;48.234;8.344;2022-09-24T17:36:35;12.80;99.90
37972;DHT22;23794;48.234;8.344;2022-09-24T17:39:04;12.70;99.90
37972;DHT22;23794;48.234;8.344;2022-09-24T17:41:31;12.60;99.90
37972;DHT22;23794;48.234;8.344;2022-09-24T17:43:58;12.60;99.90
37972;DHT22;23794;48.234;8.344;2022-09-24T17:46:30;12.60;99.90
37972;DHT22;23794;48.234;8.344;2022-09-24T17:48:58;12.50;99.90
37972;DHT22;23794;48.234;8.344;2022-09-24T17:51:28;12.40;99.90